sensor_id;sensor_type;location;lat;lon;timestamp;pressure;altitude;pressure_sealevel;temperature;humidity
13934;BME280;7039;52.168;9.866;2023-04-26T00:01:10;100643.22;;;4.32;78.11
13934;BME280;7039;52.168;9.866;2023-04-26T00:03:38;100647.25;;;4.44;77.86
13934;BME280;7039;52.168;9.866;2023-04-26T00:06:05;100643.09;;;4.37;78.13
13934;BME280;7039;52.168;9.866;2023-04-26T00:08:35;100647.72;;;4.23;78.59
13934;BME280;7039;52.168;9.866;2023-04-26T00:11:02;100646.72;;;4.30;78.98
13934;BME280;7039;52.168;9.866;2023-04-26T00:13:28;100652.88;;;4.23;78.79
13934;BME280;7039;52.168;9.866;2023-04-26T00:15:55;100657.38;;;4.13;78.63
13934;BME280;7039;52.168;9.866;2023-04-26T00:18:22;100654.31;;;3.95;79.95
13934;BME280;7039;52.168;9.866;2023-04-26T00:20:48;100660.31;;;3.96;79.94
13934;BME280;7039;52.168;9.866;2023-04-26T00:23:15;100658.41;;;4.04;79.89
13934;BME280;7039;52.168;9.866;2023-04-26T00:25:43;100652.56;;;3.96;80.15
13934;BME280;7039;52.168;9.866;2023-04-26T00:28:10;100652.44;;;4.02;80.10
13934;BME280;7039;52.168;9.866;2023-04-26T00:30:36;100651.53;;;4.05;79.28
13934;BME280;7039;52.168;9.866;2023-04-26T00:33:06;100653.38;;;3.98;79.86
13934;BME280;7039;52.168;9.866;2023-04-26T00:35:32;100652.59;;;3.94;79.79
13934;BME280;7039;52.168;9.866;2023-04-26T00:37:59;100652.34;;;4.07;79.93
13934;BME280;7039;52.168;9.866;2023-04-26T00:40:25;100654.88;;;4.10;79.55
13934;BME280;7039;52.168;9.866;2023-04-26T00:42:57;100654.78;;;4.13;79.34
13934;BME280;7039;52.168;9.866;2023-04-26T00:45:24;100663.53;;;4.07;79.58
13934;BME280;7039;52.168;9.866;2023-04-26T00:47:51;100650.31;;;3.79;80.17
13934;BME280;7039;52.168;9.866;2023-04-26T00:50:19;100656.06;;;3.93;80.30
13934;BME280;7039;52.168;9.866;2023-04-26T00:52:46;100661.94;;;4.00;79.65
13934;BME280;7039;52.168;9.866;2023-04-26T00:55:13;100665.31;;;4.04;79.43
13934;BME280;7039;52.168;9.866;2023-04-26T00:57:40;100656.75;;;4.02;79.31
13934;BME280;7039;52.168;9.866;2023-04-26T01:00:09;100655.97;;;3.98;79.45
13934;BME280;7039;52.168;9.866;2023-04-26T01:02:36;100661.91;;;4.02;79.53
13934;BME280;7039;52.168;9.866;2023-04-26T01:05:03;100667.59;;;4.17;79.02
13934;BME280;7039;52.168;9.866;2023-04-26T01:07:30;100669.22;;;4.23;78.81
13934;BME280;7039;52.168;9.866;2023-04-26T01:09:58;100666.88;;;4.11;79.16
13934;BME280;7039;52.168;9.866;2023-04-26T01:12:25;100660.84;;;4.12;78.52
13934;BME280;7039;52.168;9.866;2023-04-26T01:14:52;100665.81;;;4.23;78.18
13934;BME280;7039;52.168;9.866;2023-04-26T01:17:20;100671.81;;;4.23;78.34
13934;BME280;7039;52.168;9.866;2023-04-26T01:19:47;100665.34;;;4.02;78.71
13934;BME280;7039;52.168;9.866;2023-04-26T01:22:13;100670.59;;;3.97;78.77
13934;BME280;7039;52.168;9.866;2023-04-26T01:24:42;100674.88;;;3.98;78.99
13934;BME280;7039;52.168;9.866;2023-04-26T01:27:10;100676.53;;;4.03;78.71
13934;BME280;7039;52.168;9.866;2023-04-26T01:29:37;100679.03;;;4.06;78.91
13934;BME280;7039;52.168;9.866;2023-04-26T01:32:04;100679.16;;;4.00;79.49
13934;BME280;7039;52.168;9.866;2023-04-26T01:34:30;100675.16;;;3.85;79.88
13934;BME280;7039;52.168;9.866;2023-04-26T01:36:57;100688.69;;;3.97;79.59
13934;BME280;7039;52.168;9.866;2023-04-26T01:39:24;100683.59;;;3.93;79.89
13934;BME280;7039;52.168;9.866;2023-04-26T01:41:52;100687.13;;;3.89;80.01
13934;BME280;7039;52.168;9.866;2023-04-26T01:44:19;100681.31;;;3.78;79.82
13934;BME280;7039;52.168;9.866;2023-04-26T01:46:45;100679.06;;;3.59;80.98
13934;BME280;7039;52.168;9.866;2023-04-26T01:49:12;100678.28;;;3.54;81.17
13934;BME280;7039;52.168;9.866;2023-04-26T01:51:38;100678.28;;;3.54;81.53
13934;BME280;7039;52.168;9.866;2023-04-26T01:54:04;100674.66;;;3.66;80.87
13934;BME280;7039;52.168;9.866;2023-04-26T01:56:31;100684.16;;;3.64;80.56
13934;BME280;7039;52.168;9.866;2023-04-26T01:58:59;100682.97;;;3.80;80.24
13934;BME280;7039;52.168;9.866;2023-04-26T02:01:25;100673.69;;;3.70;80.22
13934;BME280;7039;52.168;9.866;2023-04-26T02:03:52;100671.09;;;3.71;80.06
13934;BME280;7039;52.168;9.866;2023-04-26T02:06:18;100677.09;;;3.72;79.85
13934;BME280;7039;52.168;9.866;2023-04-26T02:08:45;100683.72;;;3.85;79.92
13934;BME280;7039;52.168;9.866;2023-04-26T02:11:12;100687.94;;;3.91;79.53
13934;BME280;7039;52.168;9.866;2023-04-26T02:13:38;100687.75;;;4.00;79.12
13934;BME280;7039;52.168;9.866;2023-04-26T02:16:06;100675.31;;;3.75;79.70
13934;BME280;7039;52.168;9.866;2023-04-26T02:18:33;100684.66;;;3.83;79.65
13934;BME280;7039;52.168;9.866;2023-04-26T02:20:59;100686.28;;;3.87;79.06
13934;BME280;7039;52.168;9.866;2023-04-26T02:23:26;100681.97;;;3.87;79.14
13934;BME280;7039;52.168;9.866;2023-04-26T02:25:52;100669.34;;;3.72;79.26
13934;BME280;7039;52.168;9.866;2023-04-26T02:28:19;100678.19;;;3.59;80.00
13934;BME280;7039;52.168;9.866;2023-04-26T02:30:45;100671.34;;;3.59;80.06
13934;BME280;7039;52.168;9.866;2023-04-26T02:33:13;100672.63;;;3.33;81.08
13934;BME280;7039;52.168;9.866;2023-04-26T02:35:40;100671.78;;;3.33;81.26
13934;BME280;7039;52.168;9.866;2023-04-26T02:38:06;100678.72;;;3.29;81.67
13934;BME280;7039;52.168;9.866;2023-04-26T02:40:32;100672.84;;;3.20;81.82
13934;BME280;7039;52.168;9.866;2023-04-26T02:42:59;100671.25;;;3.11;81.87
13934;BME280;7039;52.168;9.866;2023-04-26T02:45:26;100675.63;;;3.09;82.63
13934;BME280;7039;52.168;9.866;2023-04-26T02:47:52;100681.69;;;3.05;82.75
13934;BME280;7039;52.168;9.866;2023-04-26T02:50:20;100681.53;;;3.14;82.58
13934;BME280;7039;52.168;9.866;2023-04-26T02:52:46;100685.72;;;3.23;81.91
13934;BME280;7039;52.168;9.866;2023-04-26T02:55:14;100683.97;;;3.23;81.93
13934;BME280;7039;52.168;9.866;2023-04-26T02:57:40;100678.81;;;3.25;81.59
13934;BME280;7039;52.168;9.866;2023-04-26T03:00:07;100678.84;;;3.22;81.98
13934;BME280;7039;52.168;9.866;2023-04-26T03:02:34;100684.75;;;3.28;81.62
13934;BME280;7039;52.168;9.866;2023-04-26T03:05:01;100673.75;;;3.19;81.83
13934;BME280;7039;52.168;9.866;2023-04-26T03:07:29;100684.03;;;3.19;81.81
13934;BME280;7039;52.168;9.866;2023-04-26T03:09:57;100684.91;;;3.18;82.04
13934;BME280;7039;52.168;9.866;2023-04-26T03:12:23;100680.72;;;3.10;82.04
13934;BME280;7039;52.168;9.866;2023-04-26T03:14:50;100680.94;;;2.98;82.85
13934;BME280;7039;52.168;9.866;2023-04-26T03:17:16;100680.03;;;3.01;82.61
13934;BME280;7039;52.168;9.866;2023-04-26T03:19:43;100676.75;;;2.91;82.80
13934;BME280;7039;52.168;9.866;2023-04-26T03:22:09;100679.50;;;2.80;83.03
13934;BME280;7039;52.168;9.866;2023-04-26T03:24:41;100676.03;;;2.81;83.84
13934;BME280;7039;52.168;9.866;2023-04-26T03:27:08;100681.84;;;2.94;83.67
13934;BME280;7039;52.168;9.866;2023-04-26T03:29:34;100682.75;;;2.91;83.72
13934;BME280;7039;52.168;9.866;2023-04-26T03:32:01;100679.06;;;3.08;83.31
13934;BME280;7039;52.168;9.866;2023-04-26T03:34:27;100686.63;;;3.19;82.66
13934;BME280;7039;52.168;9.866;2023-04-26T03:36:54;100680.72;;;3.13;82.51
13934;BME280;7039;52.168;9.866;2023-04-26T03:39:21;100674.53;;;3.22;82.25
13934;BME280;7039;52.168;9.866;2023-04-26T03:41:48;100674.69;;;3.13;82.51
13934;BME280;7039;52.168;9.866;2023-04-26T03:44:15;100684.00;;;3.22;82.55
13934;BME280;7039;52.168;9.866;2023-04-26T03:46:42;100687.47;;;3.18;82.63
13934;BME280;7039;52.168;9.866;2023-04-26T03:49:08;100683.34;;;3.09;83.15
13934;BME280;7039;52.168;9.866;2023-04-26T03:51:34;100695.38;;;3.08;82.63
13934;BME280;7039;52.168;9.866;2023-04-26T03:54:01;100689.28;;;3.12;83.31
13934;BME280;7039;52.168;9.866;2023-04-26T03:56:27;100695.38;;;3.08;82.91
13934;BME280;7039;52.168;9.866;2023-04-26T03:58:55;100690.88;;;3.20;83.18
13934;BME280;7039;52.168;9.866;2023-04-26T04:01:22;100693.50;;;3.18;82.93
13934;BME280;7039;52.168;9.866;2023-04-26T04:03:48;100692.56;;;3.22;82.85
13934;BME280;7039;52.168;9.866;2023-04-26T04:06:15;100691.72;;;3.22;83.00
13934;BME280;7039;52.168;9.866;2023-04-26T04:08:41;100694.19;;;3.29;82.86
13934;BME280;7039;52.168;9.866;2023-04-26T04:11:08;100693.31;;;3.30;82.62
13934;BME280;7039;52.168;9.866;2023-04-26T04:13:34;100692.53;;;3.25;82.72
13934;BME280;7039;52.168;9.866;2023-04-26T04:16:02;100694.47;;;3.11;83.49
13934;BME280;7039;52.168;9.866;2023-04-26T04:18:29;100694.47;;;3.11;83.55
13934;BME280;7039;52.168;9.866;2023-04-26T04:20:56;100697.84;;;3.14;83.56
13934;BME280;7039;52.168;9.866;2023-04-26T04:23:22;100699.59;;;3.12;83.42
13934;BME280;7039;52.168;9.866;2023-04-26T04:25:48;100705.53;;;3.18;83.75
13934;BME280;7039;52.168;9.866;2023-04-26T04:28:15;100702.78;;;3.28;83.06
13934;BME280;7039;52.168;9.866;2023-04-26T04:30:42;100707.94;;;3.27;83.32
13934;BME280;7039;52.168;9.866;2023-04-26T04:33:12;100703.47;;;3.38;83.41
13934;BME280;7039;52.168;9.866;2023-04-26T04:35:40;100707.78;;;3.38;83.22
13934;BME280;7039;52.168;9.866;2023-04-26T04:38:07;100711.34;;;3.32;83.27
13934;BME280;7039;52.168;9.866;2023-04-26T04:40:34;100709.28;;;3.51;82.99
13934;BME280;7039;52.168;9.866;2023-04-26T04:43:00;100714.19;;;3.66;82.66
13934;BME280;7039;52.168;9.866;2023-04-26T04:45:27;100716.00;;;3.61;82.61
13934;BME280;7039;52.168;9.866;2023-04-26T04:47:54;100713.50;;;3.57;82.86
13934;BME280;7039;52.168;9.866;2023-04-26T04:50:21;100711.63;;;3.63;83.33
13934;BME280;7039;52.168;9.866;2023-04-26T04:52:48;100710.84;;;3.60;83.48
13934;BME280;7039;52.168;9.866;2023-04-26T04:55:15;100713.56;;;3.52;83.42
13934;BME280;7039;52.168;9.866;2023-04-26T04:57:41;100712.38;;;3.71;82.87
13934;BME280;7039;52.168;9.866;2023-04-26T05:00:09;100717.59;;;3.67;83.05
13934;BME280;7039;52.168;9.866;2023-04-26T05:02:36;100714.78;;;3.81;82.78
13934;BME280;7039;52.168;9.866;2023-04-26T05:05:03;100716.06;;;4.05;81.88
13934;BME280;7039;52.168;9.866;2023-04-26T05:07:31;100715.44;;;3.92;82.24
13934;BME280;7039;52.168;9.866;2023-04-26T05:09:58;100719.19;;;3.74;82.96
13934;BME280;7039;52.168;9.866;2023-04-26T05:12:24;100713.09;;;3.80;82.44
13934;BME280;7039;52.168;9.866;2023-04-26T05:14:51;100717.19;;;3.90;82.24
13934;BME280;7039;52.168;9.866;2023-04-26T05:17:17;100717.00;;;3.99;81.75
13934;BME280;7039;52.168;9.866;2023-04-26T05:19:44;100715.50;;;3.89;81.88
13934;BME280;7039;52.168;9.866;2023-04-26T05:22:10;100717.91;;;3.98;81.42
13934;BME280;7039;52.168;9.866;2023-04-26T05:24:38;100721.34;;;3.97;81.33
13934;BME280;7039;52.168;9.866;2023-04-26T05:27:05;100726.22;;;4.12;81.03
13934;BME280;7039;52.168;9.866;2023-04-26T05:29:31;100723.84;;;4.02;81.53
13934;BME280;7039;52.168;9.866;2023-04-26T05:31:58;100726.47;;;4.00;81.82
13934;BME280;7039;52.168;9.866;2023-04-26T05:34:24;100734.34;;;3.92;81.94
13934;BME280;7039;52.168;9.866;2023-04-26T05:36:52;100725.66;;;3.98;82.03
13934;BME280;7039;52.168;9.866;2023-04-26T05:39:18;100738.19;;;4.18;81.65
13934;BME280;7039;52.168;9.866;2023-04-26T05:41:46;100737.22;;;4.22;81.60
13934;BME280;7039;52.168;9.866;2023-04-26T05:44:13;100737.47;;;4.10;81.52
13934;BME280;7039;52.168;9.866;2023-04-26T05:46:40;100742.47;;;4.17;80.98
13934;BME280;7039;52.168;9.866;2023-04-26T05:49:07;100743.56;;;4.06;81.59
13934;BME280;7039;52.168;9.866;2023-04-26T05:51:33;100755.00;;;4.36;80.91
13934;BME280;7039;52.168;9.866;2023-04-26T05:54:00;100755.56;;;4.52;80.17
13934;BME280;7039;52.168;9.866;2023-04-26T05:56:26;100754.59;;;4.56;80.07
13934;BME280;7039;52.168;9.866;2023-04-26T05:58:54;100750.63;;;4.41;80.45
13934;BME280;7039;52.168;9.866;2023-04-26T06:01:21;100757.19;;;4.56;80.47
13934;BME280;7039;52.168;9.866;2023-04-26T06:03:47;100755.31;;;4.64;80.31
13934;BME280;7039;52.168;9.866;2023-04-26T06:06:13;100761.25;;;4.68;80.60
13934;BME280;7039;52.168;9.866;2023-04-26T06:08:41;100757.88;;;4.66;79.91
13934;BME280;7039;52.168;9.866;2023-04-26T06:11:08;100767.13;;;4.76;80.56
13934;BME280;7039;52.168;9.866;2023-04-26T06:13:34;100765.66;;;4.63;80.79
13934;BME280;7039;52.168;9.866;2023-04-26T06:53:41;100772.50;;;6.13;73.62
13934;BME280;7039;52.168;9.866;2023-04-26T06:56:08;100757.72;;;6.15;73.94
13934;BME280;7039;52.168;9.866;2023-04-26T06:58:36;100782.94;;;6.41;73.42
13934;BME280;7039;52.168;9.866;2023-04-26T07:07:05;100779.56;;;6.69;72.15
13934;BME280;7039;52.168;9.866;2023-04-26T07:09:48;100788.31;;;6.65;71.95
13934;BME280;7039;52.168;9.866;2023-04-26T07:12:19;100783.63;;;6.78;71.38
13934;BME280;7039;52.168;9.866;2023-04-26T07:14:47;100774.50;;;6.64;71.40
13934;BME280;7039;52.168;9.866;2023-04-26T07:17:14;100786.06;;;6.53;71.36
13934;BME280;7039;52.168;9.866;2023-04-26T07:19:45;100786.91;;;6.53;71.83
13934;BME280;7039;52.168;9.866;2023-04-26T07:22:15;100783.19;;;6.63;71.33
13934;BME280;7039;52.168;9.866;2023-04-26T07:24:42;100788.53;;;6.87;70.94
13934;BME280;7039;52.168;9.866;2023-04-26T07:27:10;100772.44;;;6.76;70.68
13934;BME280;7039;52.168;9.866;2023-04-26T07:29:37;100774.78;;;6.85;70.38
13934;BME280;7039;52.168;9.866;2023-04-26T07:32:07;100770.13;;;6.96;69.38
13934;BME280;7039;52.168;9.866;2023-04-26T07:37:20;100783.94;;;7.25;68.48
13934;BME280;7039;52.168;9.866;2023-04-26T07:39:47;100776.16;;;7.25;69.74
13934;BME280;7039;52.168;9.866;2023-04-26T07:42:15;100784.53;;;7.33;68.94
13934;BME280;7039;52.168;9.866;2023-04-26T07:44:42;100772.13;;;7.43;69.23
13934;BME280;7039;52.168;9.866;2023-04-26T07:47:18;100780.66;;;7.46;69.20
13934;BME280;7039;52.168;9.866;2023-04-26T07:49:45;100785.59;;;7.81;68.51
13934;BME280;7039;52.168;9.866;2023-04-26T07:52:12;100789.91;;;8.07;67.60
13934;BME280;7039;52.168;9.866;2023-04-26T07:54:38;100779.16;;;8.18;67.50
13934;BME280;7039;52.168;9.866;2023-04-26T07:57:05;100771.28;;;8.19;66.92
13934;BME280;7039;52.168;9.866;2023-04-26T08:06:00;100785.16;;;7.41;67.14
13934;BME280;7039;52.168;9.866;2023-04-26T08:08:26;100779.53;;;7.80;66.58
13934;BME280;7039;52.168;9.866;2023-04-26T08:10:53;100780.47;;;8.29;65.96
13934;BME280;7039;52.168;9.866;2023-04-26T08:13:19;100773.19;;;8.14;65.34
13934;BME280;7039;52.168;9.866;2023-04-26T08:15:46;100767.16;;;7.88;65.94
13934;BME280;7039;52.168;9.866;2023-04-26T08:18:38;100775.41;;;7.48;65.83
13934;BME280;7039;52.168;9.866;2023-04-26T08:21:09;100778.03;;;7.48;66.32
13934;BME280;7039;52.168;9.866;2023-04-26T08:23:45;100782.38;;;7.47;66.23
13934;BME280;7039;52.168;9.866;2023-04-26T08:26:29;100776.59;;;7.38;64.81
13934;BME280;7039;52.168;9.866;2023-04-26T08:28:57;100778.28;;;7.92;64.22
13934;BME280;7039;52.168;9.866;2023-04-26T08:31:24;100782.94;;;8.07;63.95
13934;BME280;7039;52.168;9.866;2023-04-26T08:33:51;100774.03;;;7.89;65.83
13934;BME280;7039;52.168;9.866;2023-04-26T08:36:19;100781.59;;;7.97;65.74
13934;BME280;7039;52.168;9.866;2023-04-26T08:38:45;100775.00;;;8.35;63.32
13934;BME280;7039;52.168;9.866;2023-04-26T08:41:12;100788.31;;;8.98;63.20
13934;BME280;7039;52.168;9.866;2023-04-26T08:43:40;100784.59;;;9.50;59.86
13934;BME280;7039;52.168;9.866;2023-04-26T08:46:06;100775.34;;;9.20;59.05
13934;BME280;7039;52.168;9.866;2023-04-26T08:48:36;100785.53;;;9.03;59.78
13934;BME280;7039;52.168;9.866;2023-04-26T08:51:03;100783.56;;;9.10;59.30
13934;BME280;7039;52.168;9.866;2023-04-26T08:53:33;100783.69;;;8.83;58.90
13934;BME280;7039;52.168;9.866;2023-04-26T08:56:01;100784.31;;;8.90;59.47
13934;BME280;7039;52.168;9.866;2023-04-26T08:58:29;100794.97;;;8.84;60.36
13934;BME280;7039;52.168;9.866;2023-04-26T09:00:57;100773.09;;;8.66;58.55
13934;BME280;7039;52.168;9.866;2023-04-26T09:03:24;100782.94;;;9.03;58.62
13934;BME280;7039;52.168;9.866;2023-04-26T09:05:52;100772.34;;;8.86;58.07
13934;BME280;7039;52.168;9.866;2023-04-26T09:08:19;100772.88;;;9.17;57.99
13934;BME280;7039;52.168;9.866;2023-04-26T09:10:47;100766.53;;;9.01;59.22
13934;BME280;7039;52.168;9.866;2023-04-26T09:13:14;100766.38;;;8.84;58.93
13934;BME280;7039;52.168;9.866;2023-04-26T09:15:40;100772.53;;;9.03;56.01
13934;BME280;7039;52.168;9.866;2023-04-26T09:18:17;100784.22;;;9.15;55.57
13934;BME280;7039;52.168;9.866;2023-04-26T09:20:44;100773.09;;;8.66;56.02
13934;BME280;7039;52.168;9.866;2023-04-26T09:23:11;100791.66;;;9.02;56.41
13934;BME280;7039;52.168;9.866;2023-04-26T09:25:38;100779.59;;;8.77;56.59
13934;BME280;7039;52.168;9.866;2023-04-26T09:28:18;100774.50;;;8.74;56.45
13934;BME280;7039;52.168;9.866;2023-04-26T09:30:46;100775.75;;;8.41;56.50
13934;BME280;7039;52.168;9.866;2023-04-26T09:33:13;100769.59;;;8.67;55.87
13934;BME280;7039;52.168;9.866;2023-04-26T09:35:41;100781.59;;;9.15;55.16
13934;BME280;7039;52.168;9.866;2023-04-26T09:38:10;100784.63;;;9.70;55.11
13934;BME280;7039;52.168;9.866;2023-04-26T09:40:39;100781.28;;;10.08;54.33
13934;BME280;7039;52.168;9.866;2023-04-26T09:43:07;100781.38;;;9.86;53.91
13934;BME280;7039;52.168;9.866;2023-04-26T09:45:43;100770.28;;;9.80;54.08
13934;BME280;7039;52.168;9.866;2023-04-26T09:48:15;100776.66;;;9.73;52.21
13934;BME280;7039;52.168;9.866;2023-04-26T09:50:42;100770.13;;;9.43;52.39
13934;BME280;7039;52.168;9.866;2023-04-26T09:53:09;100783.97;;;9.86;52.70
13934;BME280;7039;52.168;9.866;2023-04-26T09:55:36;100776.69;;;9.51;52.48
13934;BME280;7039;52.168;9.866;2023-04-26T09:58:09;100771.06;;;9.40;53.33
13934;BME280;7039;52.168;9.866;2023-04-26T10:00:37;100777.63;;;9.28;56.66
13934;BME280;7039;52.168;9.866;2023-04-26T10:03:08;100774.09;;;8.85;57.59
13934;BME280;7039;52.168;9.866;2023-04-26T10:05:35;100774.25;;;8.59;58.80
13934;BME280;7039;52.168;9.866;2023-04-26T10:08:04;100780.78;;;8.45;58.96
13934;BME280;7039;52.168;9.866;2023-04-26T10:10:31;100795.63;;;8.89;56.19
13934;BME280;7039;52.168;9.866;2023-04-26T10:12:59;100784.50;;;8.85;56.33
13934;BME280;7039;52.168;9.866;2023-04-26T10:15:26;100786.94;;;8.66;56.24
13934;BME280;7039;52.168;9.866;2023-04-26T10:17:53;100783.47;;;8.89;55.61
13934;BME280;7039;52.168;9.866;2023-04-26T10:20:22;100784.03;;;9.19;55.56
13934;BME280;7039;52.168;9.866;2023-04-26T10:22:53;100783.19;;;9.63;54.43
13934;BME280;7039;52.168;9.866;2023-04-26T10:25:33;100792.31;;;10.14;52.97
13934;BME280;7039;52.168;9.866;2023-04-26T10:28:00;100780.69;;;10.42;52.50
13934;BME280;7039;52.168;9.866;2023-04-26T10:30:27;100766.84;;;10.00;51.41
13934;BME280;7039;52.168;9.866;2023-04-26T10:33:12;100784.09;;;10.03;51.97
13934;BME280;7039;52.168;9.866;2023-04-26T10:36:08;100766.44;;;9.89;52.02
13934;BME280;7039;52.168;9.866;2023-04-26T10:38:37;100768.00;;;9.73;52.41
13934;BME280;7039;52.168;9.866;2023-04-26T10:41:32;100770.59;;;9.52;51.82
13934;BME280;7039;52.168;9.866;2023-04-26T10:44:37;100772.09;;;9.58;52.79
13934;BME280;7039;52.168;9.866;2023-04-26T10:47:04;100773.88;;;9.35;54.07
13934;BME280;7039;52.168;9.866;2023-04-26T10:49:43;100765.47;;;9.07;54.47
13934;BME280;7039;52.168;9.866;2023-04-26T10:52:13;100769.06;;;8.81;56.55
13934;BME280;7039;52.168;9.866;2023-04-26T10:54:52;100768.63;;;8.46;54.92
13934;BME280;7039;52.168;9.866;2023-04-26T10:57:20;100761.09;;;8.38;56.76
13934;BME280;7039;52.168;9.866;2023-04-26T11:00:15;100771.25;;;8.91;56.23
13934;BME280;7039;52.168;9.866;2023-04-26T11:02:57;100765.75;;;9.21;55.67
13934;BME280;7039;52.168;9.866;2023-04-26T11:05:47;100767.66;;;9.60;55.09
13934;BME280;7039;52.168;9.866;2023-04-26T11:08:18;100765.63;;;9.46;55.55
13934;BME280;7039;52.168;9.866;2023-04-26T11:10:50;100768.41;;;9.84;54.93
13934;BME280;7039;52.168;9.866;2023-04-26T11:13:18;100761.66;;;10.19;54.76
13934;BME280;7039;52.168;9.866;2023-04-26T11:15:45;100759.53;;;10.09;53.03
13934;BME280;7039;52.168;9.866;2023-04-26T11:18:12;100756.84;;;9.69;53.58
13934;BME280;7039;52.168;9.866;2023-04-26T11:20:38;100755.31;;;9.65;52.71
13934;BME280;7039;52.168;9.866;2023-04-26T11:23:06;100758.75;;;9.66;52.81
13934;BME280;7039;52.168;9.866;2023-04-26T11:25:37;100757.00;;;9.87;52.98
13934;BME280;7039;52.168;9.866;2023-04-26T11:28:04;100764.75;;;10.09;53.92
13934;BME280;7039;52.168;9.866;2023-04-26T11:30:31;100762.19;;;10.28;52.52
13934;BME280;7039;52.168;9.866;2023-04-26T11:32:58;100767.75;;;10.20;50.37
13934;BME280;7039;52.168;9.866;2023-04-26T11:35:25;100764.47;;;10.35;50.95
13934;BME280;7039;52.168;9.866;2023-04-26T11:37:57;100752.25;;;9.96;54.74
13934;BME280;7039;52.168;9.866;2023-04-26T11:40:26;100750.28;;;9.60;53.00
13934;BME280;7039;52.168;9.866;2023-04-26T11:42:58;100761.16;;;9.50;53.97
13934;BME280;7039;52.168;9.866;2023-04-26T11:45:24;100767.25;;;9.49;55.04
13934;BME280;7039;52.168;9.866;2023-04-26T11:47:51;100770.41;;;9.57;54.85
13934;BME280;7039;52.168;9.866;2023-04-26T11:50:18;100761.19;;;9.91;52.94
13934;BME280;7039;52.168;9.866;2023-04-26T11:52:47;100763.91;;;9.88;54.06
13934;BME280;7039;52.168;9.866;2023-04-26T11:55:13;100770.59;;;10.14;50.76
13934;BME280;7039;52.168;9.866;2023-04-26T11:57:40;100761.75;;;9.56;52.60
13934;BME280;7039;52.168;9.866;2023-04-26T12:00:10;100760.78;;;9.37;52.69
13934;BME280;7039;52.168;9.866;2023-04-26T12:02:39;100753.41;;;9.48;53.53
13934;BME280;7039;52.168;9.866;2023-04-26T12:05:09;100761.25;;;9.47;52.06
13934;BME280;7039;52.168;9.866;2023-04-26T12:07:36;100762.97;;;9.48;52.27
13934;BME280;7039;52.168;9.866;2023-04-26T12:10:15;100767.88;;;9.76;52.40
13934;BME280;7039;52.168;9.866;2023-04-26T12:12:43;100784.09;;;10.03;49.79
13934;BME280;7039;52.168;9.866;2023-04-26T12:15:12;100780.69;;;10.42;49.09
13934;BME280;7039;52.168;9.866;2023-04-26T12:17:39;100765.66;;;11.23;48.16
13934;BME280;7039;52.168;9.866;2023-04-26T12:20:09;100788.63;;;10.97;49.30
13934;BME280;7039;52.168;9.866;2023-04-26T12:22:36;100766.25;;;10.92;48.37
13934;BME280;7039;52.168;9.866;2023-04-26T12:25:03;100765.13;;;10.78;47.99
13934;BME280;7039;52.168;9.866;2023-04-26T12:27:30;100770.88;;;10.08;49.26
13934;BME280;7039;52.168;9.866;2023-04-26T12:29:57;100760.66;;;9.82;49.68
13934;BME280;7039;52.168;9.866;2023-04-26T12:32:24;100759.56;;;10.28;50.41
13934;BME280;7039;52.168;9.866;2023-04-26T12:34:51;100773.38;;;10.11;49.40
13934;BME280;7039;52.168;9.866;2023-04-26T12:37:18;100761.03;;;10.35;48.70
13934;BME280;7039;52.168;9.866;2023-04-26T12:39:44;100764.47;;;10.35;49.04
13934;BME280;7039;52.168;9.866;2023-04-26T12:42:11;100750.34;;;10.20;48.27
13934;BME280;7039;52.168;9.866;2023-04-26T12:44:37;100755.28;;;10.27;48.08
13934;BME280;7039;52.168;9.866;2023-04-26T12:47:04;100761.22;;;10.10;47.72
13934;BME280;7039;52.168;9.866;2023-04-26T12:49:32;100763.38;;;10.41;48.44
13934;BME280;7039;52.168;9.866;2023-04-26T12:51:59;100764.22;;;10.60;47.24
13934;BME280;7039;52.168;9.866;2023-04-26T12:54:26;100763.34;;;11.17;46.62
13934;BME280;7039;52.168;9.866;2023-04-26T12:56:52;100760.16;;;11.29;45.07
13934;BME280;7039;52.168;9.866;2023-04-26T12:59:18;100755.94;;;11.44;44.06
13934;BME280;7039;52.168;9.866;2023-04-26T13:01:45;100758.72;;;12.44;43.34
13934;BME280;7039;52.168;9.866;2023-04-26T13:04:11;100755.59;;;12.53;43.33
13934;BME280;7039;52.168;9.866;2023-04-26T13:06:40;100750.91;;;12.75;42.78
13934;BME280;7039;52.168;9.866;2023-04-26T13:09:07;100747.59;;;12.40;44.67
13934;BME280;7039;52.168;9.866;2023-04-26T13:11:33;100755.69;;;12.36;43.48
13934;BME280;7039;52.168;9.866;2023-04-26T13:13:59;100745.47;;;12.31;44.48
13934;BME280;7039;52.168;9.866;2023-04-26T13:16:26;100751.00;;;12.74;44.92
13934;BME280;7039;52.168;9.866;2023-04-26T13:18:53;100756.03;;;12.61;44.44
13934;BME280;7039;52.168;9.866;2023-04-26T13:21:20;100749.63;;;13.30;43.19
13934;BME280;7039;52.168;9.866;2023-04-26T13:23:47;100753.00;;;13.01;44.14
13934;BME280;7039;52.168;9.866;2023-04-26T13:26:14;100763.81;;;13.72;43.52
13934;BME280;7039;52.168;9.866;2023-04-26T13:28:42;100753.06;;;13.47;42.28
13934;BME280;7039;52.168;9.866;2023-04-26T13:31:09;100743.69;;;12.31;43.87
13934;BME280;7039;52.168;9.866;2023-04-26T13:33:35;100741.13;;;11.62;45.21
13934;BME280;7039;52.168;9.866;2023-04-26T13:36:02;100742.28;;;11.56;45.69
13934;BME280;7039;52.168;9.866;2023-04-26T13:38:29;100751.75;;;10.86;47.00
13934;BME280;7039;52.168;9.866;2023-04-26T13:40:57;100752.66;;;11.04;46.52
13934;BME280;7039;52.168;9.866;2023-04-26T13:43:23;100747.50;;;10.64;46.72
13934;BME280;7039;52.168;9.866;2023-04-26T13:45:50;100751.41;;;10.75;47.53
13934;BME280;7039;52.168;9.866;2023-04-26T13:48:16;100755.16;;;11.24;47.08
13934;BME280;7039;52.168;9.866;2023-04-26T13:50:43;100758.50;;;11.98;46.36
13934;BME280;7039;52.168;9.866;2023-04-26T13:53:09;100767.84;;;13.78;42.52
13934;BME280;7039;52.168;9.866;2023-04-26T13:55:36;100765.88;;;14.55;41.69
13934;BME280;7039;52.168;9.866;2023-04-26T13:58:03;100769.97;;;14.88;40.92
13934;BME280;7039;52.168;9.866;2023-04-26T14:00:30;100760.06;;;15.73;39.02
13934;BME280;7039;52.168;9.866;2023-04-26T14:02:56;100773.25;;;14.19;40.01
13934;BME280;7039;52.168;9.866;2023-04-26T14:05:23;100759.34;;;12.81;40.75
13934;BME280;7039;52.168;9.866;2023-04-26T14:07:50;100756.19;;;12.42;43.11